<?xml version='1.0' encoding='UTF-8'?><gpx version="1.1" creator="JPX - https://github.com/jenetics/jpx" xmlns="http://www.topografix.com/GPX/1/1"><trk><trkseg><trkpt lat="50.78169490649214" lon="15.75068779059451"><ele>623.0</ele><time>2026-04-06T06:17:13.995Z</time></trkpt><trkpt lat="50.78175103942364" lon="15.750753543243176"><ele>623.0</ele><time>2026-04-06T06:17:21.997Z</time></trkpt><trkpt lat="50.781815518195586" lon="15.750783558414751"><ele>623.0</ele><time>2026-04-06T06:17:25.998Z</time></trkpt><trkpt lat="50.78187472275265" lon="15.75082538231646"><ele>623.0</ele><time>2026-04-06T06:17:33.999Z</time></trkpt><trkpt lat="50.78193906040592" lon="15.750871257756215"><ele>623.0</ele><time>2026-04-06T06:17:41.999Z</time></trkpt><trkpt lat="50.7819984350201" lon="15.750917588849033"><ele>623.0</ele><time>2026-04-06T06:17:49.999Z</time></trkpt><trkpt lat="50.78202407768896" lon="15.751032582126816"><ele>623.0</ele><time>2026-04-06T06:18:00.999Z</time></trkpt><trkpt lat="50.782002070724964" lon="15.751141946266577"><ele>621.7142857142857</ele><time>2026-04-06T06:18:02.999Z</time></trkpt><trkpt lat="50.78199721930343" lon="15.751251685397513"><ele>620.4285714285714</ele><time>2026-04-06T06:18:07.999Z</time></trkpt><trkpt lat="50.782007184735896" lon="15.75136735492353"><ele>619.1428571428571</ele><time>2026-04-06T06:18:13.999Z</time></trkpt><trkpt lat="50.78200045898631" lon="15.75148091822519"><ele>617.8571428571429</ele><time>2026-04-06T06:18:18.999Z</time></trkpt><trkpt lat="50.782012026171955" lon="15.751587450603418"><ele>616.5714285714286</ele><time>2026-04-06T06:18:28.999Z</time></trkpt><trkpt lat="50.78200868949607" lon="15.751686907351127"><ele>615.2857142857142</ele><time>2026-04-06T06:18:33.999Z</time></trkpt><trkpt lat="50.78202519510206" lon="15.75179257664827"><ele>614.0</ele><time>2026-04-06T06:18:39.999Z</time></trkpt><trkpt lat="50.78202162685053" lon="15.751892792872805"><ele>613.2857142857142</ele><time>2026-04-06T06:18:45.998Z</time></trkpt><trkpt lat="50.78205115374913" lon="15.751998804900222"><ele>612.5714285714286</ele><time>2026-04-06T06:18:52.998Z</time></trkpt><trkpt lat="50.782054989703816" lon="15.75211201130821"><ele>611.8571428571429</ele><time>2026-04-06T06:18:58.998Z</time></trkpt><trkpt lat="50.78207080353801" lon="15.752217806874627"><ele>611.1428571428571</ele><time>2026-04-06T06:19:05Z</time></trkpt><trkpt lat="50.78208220842669" lon="15.752333924153769"><ele>610.4285714285714</ele><time>2026-04-06T06:19:12Z</time></trkpt><trkpt lat="50.78208365392722" lon="15.752440898692955"><ele>609.7142857142857</ele><time>2026-04-06T06:19:18Z</time></trkpt><trkpt lat="50.78207757601833" lon="15.75255945552518"><ele>609.0</ele><time>2026-04-06T06:19:24Z</time></trkpt><trkpt lat="50.78208215761632" lon="15.75267101412157"><ele>607.7142857142857</ele><time>2026-04-06T06:19:30Z</time></trkpt><trkpt lat="50.78207935839255" lon="15.752779574943434"><ele>606.4285714285714</ele><time>2026-04-06T06:19:36Z</time></trkpt><trkpt lat="50.78207645624553" lon="15.752879608744518"><ele>605.1428571428571</ele><time>2026-04-06T06:19:41Z</time></trkpt><trkpt lat="50.782073637461274" lon="15.752986597896362"><ele>603.8571428571429</ele><time>2026-04-06T06:19:46.999Z</time></trkpt><trkpt lat="50.78207566385377" lon="15.753089990399392"><ele>602.5714285714286</ele><time>2026-04-06T06:19:51.999Z</time></trkpt><trkpt lat="50.78208815389066" lon="15.753204104106722"><ele>601.2857142857142</ele><time>2026-04-06T06:19:56.999Z</time></trkpt><trkpt lat="50.78209024005704" lon="15.753316727743911"><ele>600.0</ele><time>2026-04-06T06:20:01.999Z</time></trkpt><trkpt lat="50.78209264858844" lon="15.753417384283493"><ele>599.9999999999999</ele><time>2026-04-06T06:20:06.999Z</time></trkpt><trkpt lat="50.78203880677586" lon="15.753499287706275"><ele>600.0</ele><time>2026-04-06T06:20:13.999Z</time></trkpt><trkpt lat="50.78197309020079" lon="15.753529078599248"><ele>600.0</ele><time>2026-04-06T06:20:19.999Z</time></trkpt><trkpt lat="50.78190818691356" lon="15.753556929136613"><ele>600.0</ele><time>2026-04-06T06:20:26.999Z</time></trkpt><trkpt lat="50.781835548327" lon="15.753578404114513"><ele>600.0</ele><time>2026-04-06T06:20:33.999Z</time></trkpt><trkpt lat="50.781775704038054" lon="15.753615660667908"><ele>599.9999999999999</ele><time>2026-04-06T06:20:38.998Z</time></trkpt><trkpt lat="50.781711090187684" lon="15.753665626310468"><ele>600.0</ele><time>2026-04-06T06:20:44.998Z</time></trkpt><trkpt lat="50.78166047740052" lon="15.753744855970972"><ele>599.4285714285713</ele><time>2026-04-06T06:20:49.998Z</time></trkpt><trkpt lat="50.781634337101366" lon="15.753862207307657"><ele>598.8571428571429</ele><time>2026-04-06T06:20:55.998Z</time></trkpt><trkpt lat="50.781634992709925" lon="15.753979916080329"><ele>598.2857142857142</ele><time>2026-04-06T06:21:00.998Z</time></trkpt><trkpt lat="50.78165747081938" lon="15.75407806637621"><ele>597.7142857142857</ele><time>2026-04-06T06:21:05.998Z</time></trkpt><trkpt lat="50.78168531964345" lon="15.754194912233482"><ele>597.1428571428571</ele><time>2026-04-06T06:21:12Z</time></trkpt><trkpt lat="50.781702283613676" lon="15.754307022742758"><ele>596.5714285714286</ele><time>2026-04-06T06:21:18Z</time></trkpt><trkpt lat="50.78171498195986" lon="15.75442623020785"><ele>596.0</ele><time>2026-04-06T06:21:24Z</time></trkpt><trkpt lat="50.781679016062625" lon="15.75451312639626"><ele>594.4285714285714</ele><time>2026-04-06T06:21:29Z</time></trkpt><trkpt lat="50.781663679093754" lon="15.754632899451805"><ele>592.8571428571428</ele><time>2026-04-06T06:21:35Z</time></trkpt><trkpt lat="50.78164717811934" lon="15.754738668325853"><ele>591.2857142857142</ele><time>2026-04-06T06:21:41Z</time></trkpt><trkpt lat="50.78164170427876" lon="15.754851685113872"><ele>589.7142857142857</ele><time>2026-04-06T06:21:47Z</time></trkpt><trkpt lat="50.78165070608081" lon="15.75496627170755"><ele>588.1428571428571</ele><time>2026-04-06T06:21:52Z</time></trkpt><trkpt lat="50.78168062332904" lon="15.755057626529842"><ele>586.5714285714286</ele><time>2026-04-06T06:21:56.999Z</time></trkpt><trkpt lat="50.78173311826221" lon="15.755143005305849"><ele>585.0</ele><time>2026-04-06T06:22:02.999Z</time></trkpt><trkpt lat="50.78178969472688" lon="15.755196242683883"><ele>581.5714285714286</ele><time>2026-04-06T06:22:07.999Z</time></trkpt><trkpt lat="50.78185476207411" lon="15.755252195996409"><ele>578.1428571428571</ele><time>2026-04-06T06:22:13.999Z</time></trkpt><trkpt lat="50.781912751851216" lon="15.755299881891096"><ele>574.7142857142857</ele><time>2026-04-06T06:22:18.999Z</time></trkpt><trkpt lat="50.781976226238164" lon="15.755348013722113"><ele>571.2857142857142</ele><time>2026-04-06T06:22:23.999Z</time></trkpt><trkpt lat="50.78204330897197" lon="15.755383075301639"><ele>567.8571428571428</ele><time>2026-04-06T06:22:28.999Z</time></trkpt><trkpt lat="50.782109817444244" lon="15.755405010002786"><ele>564.4285714285714</ele><time>2026-04-06T06:22:33.999Z</time></trkpt><trkpt lat="50.78217391106081" lon="15.75541894732476"><ele>561.0</ele><time>2026-04-06T06:22:38.999Z</time></trkpt><trkpt lat="50.782241803961384" lon="15.755441777010788"><ele>561.0</ele><time>2026-04-06T06:22:43.999Z</time></trkpt><trkpt lat="50.78230727445755" lon="15.75543160115855"><ele>561.0</ele><time>2026-04-06T06:22:48.998Z</time></trkpt><trkpt lat="50.78237036005981" lon="15.755416740505792"><ele>561.0</ele><time>2026-04-06T06:22:53.998Z</time></trkpt><trkpt lat="50.78243548666764" lon="15.755396996713719"><ele>561.0</ele><time>2026-04-06T06:22:58.998Z</time></trkpt><trkpt lat="50.782498763358916" lon="15.755382713782966"><ele>561.0</ele><time>2026-04-06T06:23:03.998Z</time></trkpt><trkpt lat="50.78256752917014" lon="15.75539389634914"><ele>561.0</ele><time>2026-04-06T06:23:08.998Z</time></trkpt><trkpt lat="50.782634088117874" lon="15.755375015329339"><ele>561.0</ele><time>2026-04-06T06:23:13.998Z</time></trkpt><trkpt lat="50.78270255986174" lon="15.755365007883812"><ele>560.8333333333334</ele><time>2026-04-06T06:23:20Z</time></trkpt><trkpt lat="50.78278496682695" lon="15.755336904656719"><ele>560.6666666666666</ele><time>2026-04-06T06:23:27Z</time></trkpt><trkpt lat="50.78285615304027" lon="15.755311156199829"><ele>560.5</ele><time>2026-04-06T06:23:35Z</time></trkpt><trkpt lat="50.782903953419954" lon="15.75521747377095"><ele>560.3333333333333</ele><time>2026-04-06T06:23:42Z</time></trkpt><trkpt lat="50.78296973455633" lon="15.755180787046006"><ele>560.1666666666666</ele><time>2026-04-06T06:23:46Z</time></trkpt><trkpt lat="50.7830365260147" lon="15.755098728196053"><ele>560.0</ele><time>2026-04-06T06:23:51Z</time></trkpt><trkpt lat="50.78309839224533" lon="15.755018824260125"><ele>560.0</ele><time>2026-04-06T06:23:56Z</time></trkpt><trkpt lat="50.78314810323648" lon="15.754948085443548"><ele>560.0</ele><time>2026-04-06T06:24:00Z</time></trkpt><trkpt lat="50.78320145719868" lon="15.754862338862255"><ele>560.0</ele><time>2026-04-06T06:24:04.999Z</time></trkpt><trkpt lat="50.78326599089842" lon="15.754786926981243"><ele>560.0</ele><time>2026-04-06T06:24:09.999Z</time></trkpt><trkpt lat="50.78333255858078" lon="15.754722933333012"><ele>560.0</ele><time>2026-04-06T06:24:14.999Z</time></trkpt><trkpt lat="50.78339588698822" lon="15.754713306580545"><ele>560.0</ele><time>2026-04-06T06:24:18.999Z</time></trkpt><trkpt lat="50.78347020100956" lon="15.75473539707089"><ele>560.0</ele><time>2026-04-06T06:24:23.999Z</time></trkpt><trkpt lat="50.78353650498304" lon="15.754785460995723"><ele>560.4285714285714</ele><time>2026-04-06T06:24:28.999Z</time></trkpt><trkpt lat="50.78358486548239" lon="15.75486195957467"><ele>560.8571428571429</ele><time>2026-04-06T06:24:33.999Z</time></trkpt><trkpt lat="50.78362509415569" lon="15.754940389041852"><ele>561.2857142857142</ele><time>2026-04-06T06:24:38.999Z</time></trkpt><trkpt lat="50.78365608816239" lon="15.755032006193188"><ele>561.7142857142858</ele><time>2026-04-06T06:24:43.999Z</time></trkpt><trkpt lat="50.78365237474661" lon="15.755143670095006"><ele>562.1428571428571</ele><time>2026-04-06T06:24:48.999Z</time></trkpt><trkpt lat="50.783654786751974" lon="15.75524521560224"><ele>562.5714285714286</ele><time>2026-04-06T06:24:53.998Z</time></trkpt><trkpt lat="50.783706838314025" lon="15.755312346149676"><ele>563.0</ele><time>2026-04-06T06:24:59.998Z</time></trkpt><trkpt lat="50.78377634606649" lon="15.755313619776187"><ele>561.5714285714286</ele><time>2026-04-06T06:25:03.998Z</time></trkpt><trkpt lat="50.78384138373516" lon="15.755315505110303"><ele>560.1428571428571</ele><time>2026-04-06T06:25:08.998Z</time></trkpt><trkpt lat="50.78389922308092" lon="15.755365720351858"><ele>558.7142857142858</ele><time>2026-04-06T06:25:14.998Z</time></trkpt><trkpt lat="50.7839616300426" lon="15.755416951193975"><ele>557.2857142857142</ele><time>2026-04-06T06:25:19.998Z</time></trkpt><trkpt lat="50.784030071902734" lon="15.755466031695166"><ele>555.8571428571429</ele><time>2026-04-06T06:25:35Z</time></trkpt><trkpt lat="50.7840914608239" lon="15.755493420145866"><ele>554.4285714285714</ele><time>2026-04-06T06:25:40Z</time></trkpt><trkpt lat="50.78416780479666" lon="15.755518863442934"><ele>553.0</ele><time>2026-04-06T06:25:45Z</time></trkpt><trkpt lat="50.78423247281417" lon="15.755565133676459"><ele>553.0</ele><time>2026-04-06T06:25:52Z</time></trkpt><trkpt lat="50.784307266684166" lon="15.755566316242195"><ele>553.0</ele><time>2026-04-06T06:25:58Z</time></trkpt><trkpt lat="50.78436800405669" lon="15.755507061293597"><ele>553.0</ele><time>2026-04-06T06:26:01Z</time></trkpt><trkpt lat="50.78443628419873" lon="15.755506591286887"><ele>553.0</ele><time>2026-04-06T06:26:05.999Z</time></trkpt><trkpt lat="50.784506568698085" lon="15.755515252330035"><ele>553.0</ele><time>2026-04-06T06:26:10.999Z</time></trkpt><trkpt lat="50.784577312624414" lon="15.755536388415912"><ele>553.0</ele><time>2026-04-06T06:26:16.999Z</time></trkpt><trkpt lat="50.78464013977799" lon="15.755555159217193"><ele>553.0</ele><time>2026-04-06T06:26:22.999Z</time></trkpt><trkpt lat="50.78470840076429" lon="15.755575611192137"><ele>554.0</ele><time>2026-04-06T06:26:27.999Z</time></trkpt><trkpt lat="50.784772465140996" lon="15.755591593252614"><ele>555.0</ele><time>2026-04-06T06:26:32.999Z</time></trkpt><trkpt lat="50.78485309490304" lon="15.755605200792697"><ele>556.0</ele><time>2026-04-06T06:26:39.999Z</time></trkpt><trkpt lat="50.784928615220345" lon="15.75561794603441"><ele>557.0</ele><time>2026-04-06T06:26:45.999Z</time></trkpt><trkpt lat="50.78499207552829" lon="15.755622813101331"><ele>558.0</ele><time>2026-04-06T06:26:49.998Z</time></trkpt><trkpt lat="50.78506108571243" lon="15.755625821235153"><ele>559.0</ele><time>2026-04-06T06:26:54.998Z</time></trkpt><trkpt lat="50.78514379743461" lon="15.755629799749451"><ele>560.0</ele><time>2026-04-06T06:27:00.998Z</time></trkpt><trkpt lat="50.785210252486856" lon="15.755624581895361"><ele>561.1428571428571</ele><time>2026-04-06T06:27:05.998Z</time></trkpt><trkpt lat="50.78527814893514" lon="15.755609607003759"><ele>562.2857142857142</ele><time>2026-04-06T06:27:11.998Z</time></trkpt><trkpt lat="50.78534525563799" lon="15.755594495187285"><ele>563.4285714285714</ele><time>2026-04-06T06:27:17.998Z</time></trkpt><trkpt lat="50.78541379883684" lon="15.755579059885696"><ele>564.5714285714286</ele><time>2026-04-06T06:27:20.998Z</time></trkpt><trkpt lat="50.78548401549473" lon="15.755563247733765"><ele>565.7142857142857</ele><time>2026-04-06T06:27:24.998Z</time></trkpt><trkpt lat="50.785553006701555" lon="15.755554162823294"><ele>566.8571428571429</ele><time>2026-04-06T06:27:33Z</time></trkpt><trkpt lat="50.7856200818201" lon="15.755555075288589"><ele>568.0</ele><time>2026-04-06T06:27:38Z</time></trkpt><trkpt lat="50.785700562654156" lon="15.755556946010607"><ele>568.0</ele><time>2026-04-06T06:27:45Z</time></trkpt><trkpt lat="50.78576907253415" lon="15.755558538473329"><ele>568.0</ele><time>2026-04-06T06:27:50Z</time></trkpt><trkpt lat="50.785842119826164" lon="15.75556023640874"><ele>568.0</ele><time>2026-04-06T06:27:56Z</time></trkpt><trkpt lat="50.78590513828448" lon="15.75556170122735"><ele>568.0</ele><time>2026-04-06T06:28:01Z</time></trkpt><trkpt lat="50.78597821943359" lon="15.755563399947167"><ele>568.0</ele><time>2026-04-06T06:28:07.999Z</time></trkpt><trkpt lat="50.78604442234806" lon="15.75556737720048"><ele>568.0</ele><time>2026-04-06T06:28:12.999Z</time></trkpt><trkpt lat="50.78612192912469" lon="15.755568572337959"><ele>568.0</ele><time>2026-04-06T06:28:17.999Z</time></trkpt><trkpt lat="50.786185260503274" lon="15.755583230737845"><ele>569.8571428571429</ele><time>2026-04-06T06:28:23.999Z</time></trkpt><trkpt lat="50.78626240300872" lon="15.755609417580937"><ele>571.7142857142857</ele><time>2026-04-06T06:28:30.999Z</time></trkpt><trkpt lat="50.786338817398445" lon="15.755624488122706"><ele>573.5714285714286</ele><time>2026-04-06T06:28:38.999Z</time></trkpt><trkpt lat="50.78640622986456" lon="15.755632396749107"><ele>575.4285714285714</ele><time>2026-04-06T06:28:42.999Z</time></trkpt><trkpt lat="50.78647704587205" lon="15.755655831953998"><ele>577.2857142857142</ele><time>2026-04-06T06:28:47.999Z</time></trkpt><trkpt lat="50.7865468122071" lon="15.755677788140044"><ele>579.1428571428571</ele><time>2026-04-06T06:28:53.998Z</time></trkpt><trkpt lat="50.786617214629075" lon="15.755707200303165"><ele>581.0</ele><time>2026-04-06T06:28:59.998Z</time></trkpt><trkpt lat="50.786689616382034" lon="15.755737448551303"><ele>581.0</ele><time>2026-04-06T06:29:04.998Z</time></trkpt><trkpt lat="50.786752131937725" lon="15.75576374388177"><ele>581.0</ele><time>2026-04-06T06:29:09.998Z</time></trkpt><trkpt lat="50.78681413608749" lon="15.755789920161318"><ele>581.0</ele><time>2026-04-06T06:29:14.998Z</time></trkpt><trkpt lat="50.78688444826772" lon="15.755804359232702"><ele>581.0</ele><time>2026-04-06T06:29:19.998Z</time></trkpt><trkpt lat="50.786951442774104" lon="15.755843785602613"><ele>581.0</ele><time>2026-04-06T06:29:24.998Z</time></trkpt><trkpt lat="50.78702016742368" lon="15.755868248677793"><ele>581.0</ele><time>2026-04-06T06:29:28.998Z</time></trkpt><trkpt lat="50.78709413281933" lon="15.75589831691677"><ele>581.0</ele><time>2026-04-06T06:29:34Z</time></trkpt><trkpt lat="50.78715594615252" lon="15.75593091499094"><ele>582.0</ele><time>2026-04-06T06:29:38Z</time></trkpt><trkpt lat="50.78722486327056" lon="15.755957991283495"><ele>583.0</ele><time>2026-04-06T06:29:43Z</time></trkpt><trkpt lat="50.78729781727142" lon="15.755986053616285"><ele>584.0</ele><time>2026-04-06T06:29:48Z</time></trkpt><trkpt lat="50.787366068033734" lon="15.755967775160943"><ele>585.0</ele><time>2026-04-06T06:29:53Z</time></trkpt><trkpt lat="50.78743137573397" lon="15.755950046829444"><ele>586.0</ele><time>2026-04-06T06:29:58Z</time></trkpt><trkpt lat="50.787501244421065" lon="15.755931080388569"><ele>587.0</ele><time>2026-04-06T06:30:03Z</time></trkpt><trkpt lat="50.78757078823522" lon="15.755891073669378"><ele>588.0</ele><time>2026-04-06T06:30:08Z</time></trkpt><trkpt lat="50.78763938992312" lon="15.755850918993916"><ele>588.0</ele><time>2026-04-06T06:30:12.999Z</time></trkpt><trkpt lat="50.787703775779875" lon="15.755813231964718"><ele>588.0</ele><time>2026-04-06T06:30:18.999Z</time></trkpt><trkpt lat="50.787766764145054" lon="15.7558058745559"><ele>588.0</ele><time>2026-04-06T06:30:23.999Z</time></trkpt><trkpt lat="50.78784664661464" lon="15.755801316605982"><ele>588.0</ele><time>2026-04-06T06:30:29.999Z</time></trkpt><trkpt lat="50.78791093734433" lon="15.755797272169024"><ele>588.0</ele><time>2026-04-06T06:30:34.999Z</time></trkpt><trkpt lat="50.78797896751084" lon="15.755792857014322"><ele>588.0</ele><time>2026-04-06T06:30:38.999Z</time></trkpt><trkpt lat="50.78804249427315" lon="15.755788734130324"><ele>588.0</ele><time>2026-04-06T06:30:42.999Z</time></trkpt><trkpt lat="50.78811732261727" lon="15.755797064371572"><ele>588.0</ele><time>2026-04-06T06:30:48.999Z</time></trkpt><trkpt lat="50.788183330470154" lon="15.755809746663099"><ele>588.0</ele><time>2026-04-06T06:30:52.999Z</time></trkpt><trkpt lat="50.78825495687466" lon="15.755823166235475"><ele>588.0</ele><time>2026-04-06T06:30:58.998Z</time></trkpt><trkpt lat="50.788326996082795" lon="15.755834822691549"><ele>588.0</ele><time>2026-04-06T06:31:04.998Z</time></trkpt><trkpt lat="50.78839453943372" lon="15.755839856000298"><ele>588.0</ele><time>2026-04-06T06:31:09.998Z</time></trkpt><trkpt lat="50.788473625189575" lon="15.75585187979742"><ele>588.0</ele><time>2026-04-06T06:31:14.998Z</time></trkpt><trkpt lat="50.78853800442601" lon="15.75585973251142"><ele>588.0</ele><time>2026-04-06T06:31:18.998Z</time></trkpt><trkpt lat="50.788612343862155" lon="15.75586358963464"><ele>588.0</ele><time>2026-04-06T06:31:23.998Z</time></trkpt><trkpt lat="50.788675937925" lon="15.755863589633103"><ele>588.0</ele><time>2026-04-06T06:31:27.998Z</time></trkpt><trkpt lat="50.78874511079354" lon="15.755854160585953"><ele>588.0</ele><time>2026-04-06T06:31:31.998Z</time></trkpt><trkpt lat="50.78881745508751" lon="15.755840679070568"><ele>588.0</ele><time>2026-04-06T06:31:37.998Z</time></trkpt><trkpt lat="50.78888054328601" lon="15.755828823883101"><ele>588.0</ele><time>2026-04-06T06:31:43Z</time></trkpt><trkpt lat="50.788947880685996" lon="15.755816111195779"><ele>588.0</ele><time>2026-04-06T06:31:48Z</time></trkpt><trkpt lat="50.7890163774983" lon="15.755802771196759"><ele>588.0</ele><time>2026-04-06T06:31:53Z</time></trkpt><trkpt lat="50.78908933661883" lon="15.755790468904163"><ele>588.0</ele><time>2026-04-06T06:31:58Z</time></trkpt><trkpt lat="50.78916074894651" lon="15.755776710094164"><ele>588.0</ele><time>2026-04-06T06:32:03Z</time></trkpt><trkpt lat="50.789235043974124" lon="15.75576327314452"><ele>588.0</ele><time>2026-04-06T06:32:08Z</time></trkpt><trkpt lat="50.78930749006954" lon="15.755744350021288"><ele>588.0</ele><time>2026-04-06T06:32:13Z</time></trkpt><trkpt lat="50.78937929175731" lon="15.755725595216616"><ele>588.0</ele><time>2026-04-06T06:32:17.999Z</time></trkpt><trkpt lat="50.78944784413717" lon="15.755707833244196"><ele>588.0</ele><time>2026-04-06T06:32:22.999Z</time></trkpt><trkpt lat="50.78952040554917" lon="15.755689101940526"><ele>588.0</ele><time>2026-04-06T06:32:27.999Z</time></trkpt><trkpt lat="50.78959312443843" lon="15.755670329992185"><ele>587.5714285714286</ele><time>2026-04-06T06:32:32.999Z</time></trkpt><trkpt lat="50.78966756548047" lon="15.75564765179303"><ele>587.1428571428571</ele><time>2026-04-06T06:32:37.999Z</time></trkpt><trkpt lat="50.78973550135491" lon="15.75563377479019"><ele>586.7142857142858</ele><time>2026-04-06T06:32:42.999Z</time></trkpt><trkpt lat="50.78980517250886" lon="15.755614008358831"><ele>586.2857142857142</ele><time>2026-04-06T06:32:47.999Z</time></trkpt><trkpt lat="50.78987231767764" lon="15.755583959909485"><ele>585.8571428571429</ele><time>2026-04-06T06:32:52.999Z</time></trkpt><trkpt lat="50.78994168162475" lon="15.755580246143538"><ele>585.4285714285714</ele><time>2026-04-06T06:32:57.999Z</time></trkpt><trkpt lat="50.79001276487501" lon="15.755561712465589"><ele>585.0</ele><time>2026-04-06T06:33:02.998Z</time></trkpt><trkpt lat="50.790078895760445" lon="15.7555441071724"><ele>585.0</ele><time>2026-04-06T06:33:07.998Z</time></trkpt><trkpt lat="50.790152308997705" lon="15.755509702082191"><ele>585.0</ele><time>2026-04-06T06:33:12.998Z</time></trkpt><trkpt lat="50.79021821349354" lon="15.755476769964764"><ele>585.0</ele><time>2026-04-06T06:33:17.998Z</time></trkpt><trkpt lat="50.79028338198847" lon="15.755443848508035"><ele>585.0</ele><time>2026-04-06T06:33:22.998Z</time></trkpt><trkpt lat="50.79035115358604" lon="15.755409338648056"><ele>585.0</ele><time>2026-04-06T06:33:27.998Z</time></trkpt><trkpt lat="50.790418682642716" lon="15.755375448559224"><ele>585.0</ele><time>2026-04-06T06:33:32.998Z</time></trkpt><trkpt lat="50.79048880731409" lon="15.75534016662566"><ele>585.0</ele><time>2026-04-06T06:33:37.998Z</time></trkpt><trkpt lat="50.79056255447416" lon="15.755303112347677"><ele>584.4285714285714</ele><time>2026-04-06T06:33:42.998Z</time></trkpt><trkpt lat="50.79063483770903" lon="15.755266354920014"><ele>583.8571428571429</ele><time>2026-04-06T06:33:49Z</time></trkpt><trkpt lat="50.790704748439865" lon="15.75523446231755"><ele>583.2857142857142</ele><time>2026-04-06T06:33:54Z</time></trkpt><trkpt lat="50.79077256422944" lon="15.755187935466871"><ele>582.7142857142858</ele><time>2026-04-06T06:33:59Z</time></trkpt><trkpt lat="50.790834167600245" lon="15.75513315980935"><ele>582.1428571428571</ele><time>2026-04-06T06:34:04Z</time></trkpt><trkpt lat="50.79089740750716" lon="15.755094406122442"><ele>581.5714285714286</ele><time>2026-04-06T06:34:10Z</time></trkpt><trkpt lat="50.79096001210831" lon="15.755060422821806"><ele>581.0</ele><time>2026-04-06T06:34:15Z</time></trkpt><trkpt lat="50.79102131202436" lon="15.755027138789305"><ele>581.7142857142857</ele><time>2026-04-06T06:34:19.999Z</time></trkpt><trkpt lat="50.791049961964454" lon="15.754927475132298"><ele>582.4285714285714</ele><time>2026-04-06T06:34:30.999Z</time></trkpt><trkpt lat="50.79105520628095" lon="15.754807181128887"><ele>583.1428571428571</ele><time>2026-04-06T06:34:35.999Z</time></trkpt><trkpt lat="50.791093159522624" lon="15.754723063172696"><ele>583.8571428571429</ele><time>2026-04-06T06:34:44.999Z</time></trkpt><trkpt lat="50.79112481575179" lon="15.754630668486982"><ele>584.5714285714286</ele><time>2026-04-06T06:34:49.999Z</time></trkpt><trkpt lat="50.79116223470609" lon="15.75450465394526"><ele>585.2857142857142</ele><time>2026-04-06T06:34:55.999Z</time></trkpt><trkpt lat="50.791190603792344" lon="15.754386960731415"><ele>586.0</ele><time>2026-04-06T06:35:03.998Z</time></trkpt><trkpt lat="50.79121618615703" lon="15.754294114289992"><ele>585.9999999999999</ele><time>2026-04-06T06:35:08.998Z</time></trkpt><trkpt lat="50.791221171537345" lon="15.754183381937771"><ele>586.0</ele><time>2026-04-06T06:35:14.998Z</time></trkpt><trkpt lat="50.79120041380806" lon="15.754078786075958"><ele>586.0</ele><time>2026-04-06T06:35:19.998Z</time></trkpt><trkpt lat="50.791183357240634" lon="15.753978070344012"><ele>586.0</ele><time>2026-04-06T06:35:25.998Z</time></trkpt><trkpt lat="50.7911621543576" lon="15.753877625657964"><ele>586.0</ele><time>2026-04-06T06:35:30.998Z</time></trkpt><trkpt lat="50.79113691913511" lon="15.75377440001922"><ele>585.9999999999999</ele><time>2026-04-06T06:35:36.998Z</time></trkpt><trkpt lat="50.79110481064473" lon="15.753675057762969"><ele>586.0</ele><time>2026-04-06T06:35:41.998Z</time></trkpt><trkpt lat="50.791070319180356" lon="15.75358614342129"><ele>585.4285714285713</ele><time>2026-04-06T06:35:47.998Z</time></trkpt><trkpt lat="50.791032481808145" lon="15.75349730761937"><ele>584.8571428571429</ele><time>2026-04-06T06:35:53Z</time></trkpt><trkpt lat="50.7909918840661" lon="15.75340452076861"><ele>584.2857142857142</ele><time>2026-04-06T06:35:58Z</time></trkpt><trkpt lat="50.790947738287365" lon="15.753319982279665"><ele>583.7142857142857</ele><time>2026-04-06T06:36:03Z</time></trkpt><trkpt lat="50.79089027867565" lon="15.753246595795858"><ele>583.1428571428571</ele><time>2026-04-06T06:36:09Z</time></trkpt><trkpt lat="50.79085388556459" lon="15.753158856749952"><ele>582.5714285714286</ele><time>2026-04-06T06:36:14Z</time></trkpt><trkpt lat="50.79079837998817" lon="15.753095006688149"><ele>582.0</ele><time>2026-04-06T06:36:19Z</time></trkpt><trkpt lat="50.790752746726696" lon="15.753025910033815"><ele>585.2857142857142</ele><time>2026-04-06T06:36:24Z</time></trkpt><trkpt lat="50.790700402430986" lon="15.752956689551"><ele>588.5714285714286</ele><time>2026-04-06T06:36:30.999Z</time></trkpt><trkpt lat="50.790659886168314" lon="15.752847474261323"><ele>591.8571428571429</ele><time>2026-04-06T06:36:36.999Z</time></trkpt><trkpt lat="50.79060856629425" lon="15.752762656498959"><ele>595.1428571428571</ele><time>2026-04-06T06:36:42.999Z</time></trkpt><trkpt lat="50.7905694296452" lon="15.7526562513491"><ele>598.4285714285714</ele><time>2026-04-06T06:36:48.999Z</time></trkpt><trkpt lat="50.79054217598615" lon="15.752563106734353"><ele>601.7142857142857</ele><time>2026-04-06T06:36:52.999Z</time></trkpt><trkpt lat="50.790503788787454" lon="15.752462097577467"><ele>605.0</ele><time>2026-04-06T06:36:57.999Z</time></trkpt><trkpt lat="50.790460540712495" lon="15.752363436465577"><ele>605.0</ele><time>2026-04-06T06:37:02.999Z</time></trkpt><trkpt lat="50.79041593540192" lon="15.752283988385356"><ele>605.0</ele><time>2026-04-06T06:37:07.999Z</time></trkpt><trkpt lat="50.79037368199092" lon="15.752196801306177"><ele>605.0</ele><time>2026-04-06T06:37:12.999Z</time></trkpt><trkpt lat="50.79032206011167" lon="15.75209769008539"><ele>605.0</ele><time>2026-04-06T06:37:20.998Z</time></trkpt><trkpt lat="50.79027723464935" lon="15.752020707900758"><ele>605.0</ele><time>2026-04-06T06:37:24.998Z</time></trkpt><trkpt lat="50.79024928263771" lon="15.751926132772894"><ele>605.0</ele><time>2026-04-06T06:37:31.998Z</time></trkpt><trkpt lat="50.79022577810606" lon="15.751829250254556"><ele>605.0</ele><time>2026-04-06T06:37:36.998Z</time></trkpt><trkpt lat="50.79020855669406" lon="15.751729425924708"><ele>604.8571428571429</ele><time>2026-04-06T06:37:43.998Z</time></trkpt><trkpt lat="50.79019419285832" lon="15.751627065049524"><ele>604.7142857142858</ele><time>2026-04-06T06:37:48.998Z</time></trkpt><trkpt lat="50.79018433907069" lon="15.751511723600958"><ele>604.5714285714287</ele><time>2026-04-06T06:37:55.998Z</time></trkpt><trkpt lat="50.79017867032649" lon="15.751403862794694"><ele>604.4285714285714</ele><time>2026-04-06T06:38:02Z</time></trkpt><trkpt lat="50.79019087788604" lon="15.751293126568944"><ele>604.2857142857143</ele><time>2026-04-06T06:38:07Z</time></trkpt><trkpt lat="50.79021437604667" lon="15.751193277872055"><ele>604.1428571428572</ele><time>2026-04-06T06:38:13Z</time></trkpt><trkpt lat="50.790202465425516" lon="15.751093825911516"><ele>604.0</ele><time>2026-04-06T06:38:18Z</time></trkpt><trkpt lat="50.79022507524189" lon="15.750973841258299"><ele>605.4285714285714</ele><time>2026-04-06T06:38:24Z</time></trkpt><trkpt lat="50.79022141163391" lon="15.75087055421211"><ele>606.8571428571429</ele><time>2026-04-06T06:38:30Z</time></trkpt><trkpt lat="50.79022851577161" lon="15.750742712149838"><ele>608.2857142857142</ele><time>2026-04-06T06:38:35.999Z</time></trkpt><trkpt lat="50.79024343235071" lon="15.75064199157541"><ele>609.7142857142858</ele><time>2026-04-06T06:38:41.999Z</time></trkpt><trkpt lat="50.79026398626547" lon="15.750537561026073"><ele>611.1428571428571</ele><time>2026-04-06T06:38:48.999Z</time></trkpt><trkpt lat="50.79028711939241" lon="15.750442952178394"><ele>612.5714285714286</ele><time>2026-04-06T06:38:53.999Z</time></trkpt><trkpt lat="50.79032001934566" lon="15.750348255588593"><ele>614.0</ele><time>2026-04-06T06:39:00.999Z</time></trkpt><trkpt lat="50.790365603518" lon="15.750270624424388"><ele>616.4285714285713</ele><time>2026-04-06T06:39:06.999Z</time></trkpt><trkpt lat="50.79042626333285" lon="15.750204472577316"><ele>618.8571428571429</ele><time>2026-04-06T06:39:12.999Z</time></trkpt><trkpt lat="50.7904928486682" lon="15.750187522440783"><ele>621.2857142857142</ele><time>2026-04-06T06:39:19.998Z</time></trkpt><trkpt lat="50.79056132922377" lon="15.750192036331274"><ele>623.7142857142857</ele><time>2026-04-06T06:39:23.998Z</time></trkpt><trkpt lat="50.79062845916525" lon="15.750172973033463"><ele>626.1428571428571</ele><time>2026-04-06T06:39:32.998Z</time></trkpt><trkpt lat="50.79068357888494" lon="15.7501204563591"><ele>628.5714285714286</ele><time>2026-04-06T06:39:37.998Z</time></trkpt><trkpt lat="50.790733512667394" lon="15.750052938042552"><ele>631.0</ele><time>2026-04-06T06:39:43.998Z</time></trkpt><trkpt lat="50.79077588155723" lon="15.749961103859837"><ele>631.0</ele><time>2026-04-06T06:39:51.998Z</time></trkpt><trkpt lat="50.790811010114886" lon="15.749867384787319"><ele>631.0</ele><time>2026-04-06T06:39:57.998Z</time></trkpt><trkpt lat="50.79083902223166" lon="15.749772136422193"><ele>631.0</ele><time>2026-04-06T06:40:04Z</time></trkpt><trkpt lat="50.79086510035791" lon="15.749655290802883"><ele>631.0</ele><time>2026-04-06T06:40:10Z</time></trkpt><trkpt lat="50.79088246913301" lon="15.7495371364791"><ele>631.0</ele><time>2026-04-06T06:40:16Z</time></trkpt><trkpt lat="50.79089699369447" lon="15.749413463072138"><ele>631.0</ele><time>2026-04-06T06:40:22Z</time></trkpt><trkpt lat="50.790906265778155" lon="15.749311010276148"><ele>631.0</ele><time>2026-04-06T06:40:27Z</time></trkpt><trkpt lat="50.79090294233896" lon="15.749201467251217"><ele>632.5714285714286</ele><time>2026-04-06T06:40:32Z</time></trkpt><trkpt lat="50.790906215259696" lon="15.749085219480545"><ele>634.1428571428571</ele><time>2026-04-06T06:40:37Z</time></trkpt><trkpt lat="50.790891894102664" lon="15.7489679447089"><ele>635.7142857142857</ele><time>2026-04-06T06:40:41.999Z</time></trkpt><trkpt lat="50.790897336056304" lon="15.748848574302247"><ele>637.2857142857142</ele><time>2026-04-06T06:40:47.999Z</time></trkpt><trkpt lat="50.79090564114778" lon="15.748747303497622"><ele>638.8571428571429</ele><time>2026-04-06T06:40:52.999Z</time></trkpt><trkpt lat="50.790908308971744" lon="15.748632518455581"><ele>640.4285714285713</ele><time>2026-04-06T06:40:58.999Z</time></trkpt><trkpt lat="50.79090554791359" lon="15.74852808813478"><ele>642.0</ele><time>2026-04-06T06:41:04.999Z</time></trkpt><trkpt lat="50.790908602663364" lon="15.748402468358"><ele>642.8571428571428</ele><time>2026-04-06T06:41:10.999Z</time></trkpt><trkpt lat="50.79090524886289" lon="15.748295973147034"><ele>643.7142857142857</ele><time>2026-04-06T06:41:16.999Z</time></trkpt><trkpt lat="50.7909061768367" lon="15.748181479957328"><ele>644.5714285714286</ele><time>2026-04-06T06:41:22.999Z</time></trkpt><trkpt lat="50.79090133685378" lon="15.748063570508895"><ele>645.4285714285713</ele><time>2026-04-06T06:41:28.998Z</time></trkpt><trkpt lat="50.790904673667924" lon="15.747959767300229"><ele>646.2857142857142</ele><time>2026-04-06T06:41:33.998Z</time></trkpt><trkpt lat="50.790904389291164" lon="15.747842807287512"><ele>647.1428571428571</ele><time>2026-04-06T06:41:39.998Z</time></trkpt><trkpt lat="50.79090134216399" lon="15.747733447140668"><ele>648.0</ele><time>2026-04-06T06:41:44.998Z</time></trkpt><trkpt lat="50.79088813685044" lon="15.747624818155659"><ele>648.0</ele><time>2026-04-06T06:41:50.998Z</time></trkpt><trkpt lat="50.79087544522467" lon="15.747519330735006"><ele>648.0</ele><time>2026-04-06T06:41:56.998Z</time></trkpt><trkpt lat="50.79086223217606" lon="15.747410550520055"><ele>648.0</ele><time>2026-04-06T06:42:01.998Z</time></trkpt><trkpt lat="50.79085022357669" lon="15.747308185514914"><ele>648.0</ele><time>2026-04-06T06:42:06.998Z</time></trkpt><trkpt lat="50.790836351720934" lon="15.747189937647406"><ele>648.0</ele><time>2026-04-06T06:42:13Z</time></trkpt><trkpt lat="50.79082340588276" lon="15.74708196953801"><ele>648.0</ele><time>2026-04-06T06:42:18Z</time></trkpt><trkpt lat="50.79080938872288" lon="15.746967873570892"><ele>648.0</ele><time>2026-04-06T06:42:24Z</time></trkpt><trkpt lat="50.79079150170328" lon="15.74686092374211"><ele>648.0</ele><time>2026-04-06T06:42:29Z</time></trkpt><trkpt lat="50.79077315030465" lon="15.746761428893874"><ele>648.0</ele><time>2026-04-06T06:42:34Z</time></trkpt><trkpt lat="50.79075560831415" lon="15.746638170902555"><ele>648.0</ele><time>2026-04-06T06:42:39Z</time></trkpt><trkpt lat="50.79071569394649" lon="15.74655157826229"><ele>648.0</ele><time>2026-04-06T06:42:45.999Z</time></trkpt><trkpt lat="50.79069157849861" lon="15.746439029937617"><ele>648.0</ele><time>2026-04-06T06:42:51.999Z</time></trkpt><trkpt lat="50.79067814060023" lon="15.746328470328162"><ele>648.0</ele><time>2026-04-06T06:42:57.999Z</time></trkpt><trkpt lat="50.790658207308645" lon="15.746227005447588"><ele>648.0</ele><time>2026-04-06T06:43:04.999Z</time></trkpt><trkpt lat="50.79063459104112" lon="15.746125236892887"><ele>648.0</ele><time>2026-04-06T06:43:10.999Z</time></trkpt><trkpt lat="50.790616046067534" lon="15.746016818965971"><ele>648.0</ele><time>2026-04-06T06:43:16.999Z</time></trkpt><trkpt lat="50.79060349437262" lon="15.745911347516852"><ele>648.0</ele><time>2026-04-06T06:43:21.999Z</time></trkpt><trkpt lat="50.79058213831963" lon="15.745799528352489"><ele>648.0</ele><time>2026-04-06T06:43:27.998Z</time></trkpt><trkpt lat="50.790573092370245" lon="15.745698351259428"><ele>648.0</ele><time>2026-04-06T06:43:32.998Z</time></trkpt><trkpt lat="50.790559646133396" lon="15.745599478823356"><ele>648.0</ele><time>2026-04-06T06:43:36.998Z</time></trkpt><trkpt lat="50.79053130359708" lon="15.745505588365534"><ele>648.0</ele><time>2026-04-06T06:43:41.998Z</time></trkpt><trkpt lat="50.7905124684801" lon="15.745398546892913"><ele>648.0</ele><time>2026-04-06T06:43:48.998Z</time></trkpt><trkpt lat="50.79048612592521" lon="15.745299833799493"><ele>648.0</ele><time>2026-04-06T06:43:54.998Z</time></trkpt><trkpt lat="50.79046820114446" lon="15.745186988759208"><ele>648.0</ele><time>2026-04-06T06:44:00.998Z</time></trkpt><trkpt lat="50.79044280932194" lon="15.745093240197876"><ele>648.0</ele><time>2026-04-06T06:44:06.998Z</time></trkpt><trkpt lat="50.7904245776841" lon="15.74498193728822"><ele>648.0</ele><time>2026-04-06T06:44:12.997Z</time></trkpt><trkpt lat="50.7904134001333" lon="15.744879241265243"><ele>648.0</ele><time>2026-04-06T06:44:18Z</time></trkpt><trkpt lat="50.79040473678906" lon="15.744780401210338"><ele>648.0</ele><time>2026-04-06T06:44:24Z</time></trkpt><trkpt lat="50.79036812735181" lon="15.744678307313068"><ele>649.0</ele><time>2026-04-06T06:44:30Z</time></trkpt><trkpt lat="50.79033345814064" lon="15.744594081300258"><ele>650.0</ele><time>2026-04-06T06:44:35Z</time></trkpt><trkpt lat="50.790296960575276" lon="15.744487822138721"><ele>651.0</ele><time>2026-04-06T06:44:41Z</time></trkpt><trkpt lat="50.790270632875206" lon="15.74438909020049"><ele>652.0</ele><time>2026-04-06T06:44:46Z</time></trkpt><trkpt lat="50.79024635376042" lon="15.74429706514768"><ele>653.0</ele><time>2026-04-06T06:44:51Z</time></trkpt><trkpt lat="50.7902275530332" lon="15.744191728456993"><ele>654.0</ele><time>2026-04-06T06:44:56.999Z</time></trkpt><trkpt lat="50.79021569037969" lon="15.744089267763753"><ele>655.0</ele><time>2026-04-06T06:45:01.999Z</time></trkpt><trkpt lat="50.79019205223754" lon="15.743989173653734"><ele>659.5714285714286</ele><time>2026-04-06T06:45:07.999Z</time></trkpt><trkpt lat="50.79017189094387" lon="15.743891258816655"><ele>664.1428571428571</ele><time>2026-04-06T06:45:13.999Z</time></trkpt><trkpt lat="50.790157863112476" lon="15.743792923986481"><ele>668.7142857142858</ele><time>2026-04-06T06:45:18.999Z</time></trkpt><trkpt lat="50.7901375558459" lon="15.74368765952092"><ele>673.2857142857142</ele><time>2026-04-06T06:45:24.999Z</time></trkpt><trkpt lat="50.79011954553701" lon="15.74357935975658"><ele>677.8571428571428</ele><time>2026-04-06T06:45:30.999Z</time></trkpt><trkpt lat="50.79010312799955" lon="15.743482067739276"><ele>682.4285714285714</ele><time>2026-04-06T06:45:35.999Z</time></trkpt><trkpt lat="50.790105053142" lon="15.74336995643022"><ele>687.0</ele><time>2026-04-06T06:45:41.998Z</time></trkpt><trkpt lat="50.790083372884595" lon="15.743270139153442"><ele>687.0</ele><time>2026-04-06T06:45:46.998Z</time></trkpt><trkpt lat="50.790074259898304" lon="15.743171519871447"><ele>687.0</ele><time>2026-04-06T06:45:51.998Z</time></trkpt><trkpt lat="50.7900537189241" lon="15.74307707448737"><ele>687.0</ele><time>2026-04-06T06:45:56.998Z</time></trkpt><trkpt lat="50.790034806409956" lon="15.742968991001574"><ele>687.0</ele><time>2026-04-06T06:46:01.998Z</time></trkpt><trkpt lat="50.79001424841785" lon="15.742866854751393"><ele>687.0</ele><time>2026-04-06T06:46:07.998Z</time></trkpt><trkpt lat="50.78999482535745" lon="15.74277086413668"><ele>687.0</ele><time>2026-04-06T06:46:12.998Z</time></trkpt><trkpt lat="50.78997480249007" lon="15.742671332032286"><ele>687.0</ele><time>2026-04-06T06:46:17.998Z</time></trkpt><trkpt lat="50.78995457173482" lon="15.742569792190555"><ele>687.0</ele><time>2026-04-06T06:46:23Z</time></trkpt><trkpt lat="50.78993114901693" lon="15.74245583767684"><ele>687.0</ele><time>2026-04-06T06:46:29Z</time></trkpt><trkpt lat="50.78990998281893" lon="15.742351037839134"><ele>687.0</ele><time>2026-04-06T06:46:35Z</time></trkpt><trkpt lat="50.7898900547302" lon="15.74225222324563"><ele>687.0</ele><time>2026-04-06T06:46:40Z</time></trkpt><trkpt lat="50.78987075184867" lon="15.742156449205904"><ele>687.0</ele><time>2026-04-06T06:46:45Z</time></trkpt><trkpt lat="50.78984891161607" lon="15.742047178165906"><ele>687.0</ele><time>2026-04-06T06:46:50Z</time></trkpt><trkpt lat="50.789828031446454" lon="15.741943241325405"><ele>687.0</ele><time>2026-04-06T06:46:55.999Z</time></trkpt><trkpt lat="50.789805490447286" lon="15.741829019078773"><ele>686.2857142857143</ele><time>2026-04-06T06:47:01.999Z</time></trkpt><trkpt lat="50.7897859113326" lon="15.741726538617907"><ele>685.5714285714286</ele><time>2026-04-06T06:47:06.999Z</time></trkpt><trkpt lat="50.78976424656861" lon="15.741613000839745"><ele>684.8571428571429</ele><time>2026-04-06T06:47:12.999Z</time></trkpt><trkpt lat="50.789743629222286" lon="15.741503498501736"><ele>684.1428571428571</ele><time>2026-04-06T06:47:18.999Z</time></trkpt><trkpt lat="50.789722141545816" lon="15.741389281582675"><ele>683.4285714285714</ele><time>2026-04-06T06:47:24.999Z</time></trkpt><trkpt lat="50.78970066330627" lon="15.741279002313114"><ele>682.7142857142857</ele><time>2026-04-06T06:47:31.999Z</time></trkpt><trkpt lat="50.78967763636421" lon="15.741181607353665"><ele>682.0</ele><time>2026-04-06T06:47:37.999Z</time></trkpt><trkpt lat="50.789657339071134" lon="15.741084528820874"><ele>682.1428571428571</ele><time>2026-04-06T06:47:42.998Z</time></trkpt><trkpt lat="50.78962108028768" lon="15.740994469668454"><ele>682.2857142857143</ele><time>2026-04-06T06:47:48.998Z</time></trkpt><trkpt lat="50.78959028983409" lon="15.740901345970904"><ele>682.4285714285714</ele><time>2026-04-06T06:47:54.998Z</time></trkpt><trkpt lat="50.789557994902104" lon="15.740799813654528"><ele>682.5714285714286</ele><time>2026-04-06T06:48:00.998Z</time></trkpt><trkpt lat="50.78952688847137" lon="15.74069185777635"><ele>682.7142857142857</ele><time>2026-04-06T06:48:07.998Z</time></trkpt><trkpt lat="50.789512539894744" lon="15.740588280836876"><ele>682.8571428571429</ele><time>2026-04-06T06:48:13.998Z</time></trkpt><trkpt lat="50.78949982594152" lon="15.74048513241137"><ele>683.0</ele><time>2026-04-06T06:48:19.998Z</time></trkpt><trkpt lat="50.789491994155696" lon="15.740369895311083"><ele>683.0</ele><time>2026-04-06T06:48:25.997Z</time></trkpt><trkpt lat="50.78948964239184" lon="15.740257546075872"><ele>683.0</ele><time>2026-04-06T06:48:33Z</time></trkpt><trkpt lat="50.789481462993976" lon="15.740143368471106"><ele>683.0</ele><time>2026-04-06T06:48:41Z</time></trkpt><trkpt lat="50.78948368771052" lon="15.740031091256048"><ele>683.0</ele><time>2026-04-06T06:48:48Z</time></trkpt><trkpt lat="50.78946967112426" lon="15.739931310348416"><ele>683.0</ele><time>2026-04-06T06:48:54Z</time></trkpt><trkpt lat="50.78946920596612" lon="15.739828280238251"><ele>683.0</ele><time>2026-04-06T06:49:00Z</time></trkpt><trkpt lat="50.789466701746726" lon="15.73971838462024"><ele>683.0</ele><time>2026-04-06T06:49:05.999Z</time></trkpt><trkpt lat="50.789468655697924" lon="15.73960456912203"><ele>684.1428571428571</ele><time>2026-04-06T06:49:12.999Z</time></trkpt><trkpt lat="50.789463614379706" lon="15.739488667492044"><ele>685.2857142857142</ele><time>2026-04-06T06:49:18.999Z</time></trkpt><trkpt lat="50.78945456989797" lon="15.739384789422505"><ele>686.4285714285713</ele><time>2026-04-06T06:49:24.999Z</time></trkpt><trkpt lat="50.78944557214787" lon="15.739280431410466"><ele>687.5714285714286</ele><time>2026-04-06T06:49:31.999Z</time></trkpt><trkpt lat="50.78943670342554" lon="15.739177565254137"><ele>688.7142857142857</ele><time>2026-04-06T06:49:38.999Z</time></trkpt><trkpt lat="50.789426833983114" lon="15.739067084817108"><ele>689.8571428571428</ele><time>2026-04-06T06:49:47.998Z</time></trkpt><trkpt lat="50.78940235369828" lon="15.738960899953058"><ele>691.0</ele><time>2026-04-06T06:50:06.998Z</time></trkpt><trkpt lat="50.78939147200625" lon="15.738852264025086"><ele>692.5714285714286</ele><time>2026-04-06T06:50:15.998Z</time></trkpt><trkpt lat="50.789381619641546" lon="15.738753747395071"><ele>694.1428571428571</ele><time>2026-04-06T06:50:23.998Z</time></trkpt><trkpt lat="50.78937524894446" lon="15.738641556439191"><ele>695.7142857142858</ele><time>2026-04-06T06:50:30.997Z</time></trkpt><trkpt lat="50.789379146206066" lon="15.7385389457745"><ele>697.2857142857142</ele><time>2026-04-06T06:50:38Z</time></trkpt><trkpt lat="50.78937876531962" lon="15.738439301002124"><ele>698.8571428571429</ele><time>2026-04-06T06:50:44Z</time></trkpt><trkpt lat="50.789371243963814" lon="15.738337516371086"><ele>700.4285714285714</ele><time>2026-04-06T06:50:50Z</time></trkpt><trkpt lat="50.78936375253196" lon="15.738235452980295"><ele>702.0</ele><time>2026-04-06T06:50:56Z</time></trkpt><trkpt lat="50.78934726612348" lon="15.738126443565971"><ele>706.8571428571429</ele><time>2026-04-06T06:51:02Z</time></trkpt><trkpt lat="50.789337044792696" lon="15.73802234287745"><ele>711.7142857142858</ele><time>2026-04-06T06:51:06.999Z</time></trkpt><trkpt lat="50.78932695429788" lon="15.737923885424605"><ele>716.5714285714287</ele><time>2026-04-06T06:51:13.999Z</time></trkpt><trkpt lat="50.7893231881487" lon="15.737822773208372"><ele>721.4285714285714</ele><time>2026-04-06T06:51:20.999Z</time></trkpt><trkpt lat="50.7893203952869" lon="15.737714111066456"><ele>726.2857142857142</ele><time>2026-04-06T06:51:27.999Z</time></trkpt><trkpt lat="50.7893095162954" lon="15.73760486312242"><ele>731.1428571428572</ele><time>2026-04-06T06:51:34.999Z</time></trkpt><trkpt lat="50.789290115490935" lon="15.737496876831063"><ele>736.0</ele><time>2026-04-06T06:51:41.999Z</time></trkpt><trkpt lat="50.78928974490541" lon="15.737394016826341"><ele>736.8571428571429</ele><time>2026-04-06T06:51:48.999Z</time></trkpt><trkpt lat="50.789296288630645" lon="15.737292276230718"><ele>737.7142857142857</ele><time>2026-04-06T06:51:57.998Z</time></trkpt><trkpt lat="50.78928891584699" lon="15.737192595986395"><ele>738.5714285714286</ele><time>2026-04-06T06:52:04.998Z</time></trkpt><trkpt lat="50.789281183553925" lon="15.737089549354941"><ele>739.4285714285714</ele><time>2026-04-06T06:52:09.998Z</time></trkpt><trkpt lat="50.789272538276606" lon="15.736978271280496"><ele>740.2857142857142</ele><time>2026-04-06T06:52:15.998Z</time></trkpt><trkpt lat="50.78926398506198" lon="15.736876429158894"><ele>741.1428571428571</ele><time>2026-04-06T06:52:22.998Z</time></trkpt><trkpt lat="50.78924012153302" lon="15.736777331243147"><ele>742.0</ele><time>2026-04-06T06:52:28.998Z</time></trkpt><trkpt lat="50.789212655411006" lon="15.736675757004331"><ele>743.0</ele><time>2026-04-06T06:52:35.997Z</time></trkpt><trkpt lat="50.78918739789496" lon="15.736580962971683"><ele>744.0</ele><time>2026-04-06T06:52:44Z</time></trkpt><trkpt lat="50.78917189282573" lon="15.736469809872519"><ele>745.0</ele><time>2026-04-06T06:52:52Z</time></trkpt><trkpt lat="50.78917283356606" lon="15.73636563796481"><ele>746.0</ele><time>2026-04-06T06:52:59Z</time></trkpt><trkpt lat="50.7891662429591" lon="15.736246798634314"><ele>747.0</ele><time>2026-04-06T06:53:06Z</time></trkpt><trkpt lat="50.78917570077226" lon="15.736144588621245"><ele>748.0</ele><time>2026-04-06T06:53:12Z</time></trkpt><trkpt lat="50.789174672051445" lon="15.736036410849525"><ele>749.0</ele><time>2026-04-06T06:53:18.999Z</time></trkpt><trkpt lat="50.78916161390196" lon="15.735930024933726"><ele>749.5714285714286</ele><time>2026-04-06T06:53:25.999Z</time></trkpt><trkpt lat="50.78914721693098" lon="15.735820283726017"><ele>750.1428571428571</ele><time>2026-04-06T06:53:32.999Z</time></trkpt><trkpt lat="50.7891339987645" lon="15.735713674947489"><ele>750.7142857142858</ele><time>2026-04-06T06:53:41.999Z</time></trkpt><trkpt lat="50.78918044368112" lon="15.73563147643059"><ele>751.2857142857142</ele><time>2026-04-06T06:53:52.999Z</time></trkpt><trkpt lat="50.78924642443858" lon="15.735602736387603"><ele>751.8571428571429</ele><time>2026-04-06T06:54:21.998Z</time></trkpt><trkpt lat="50.78917298701817" lon="15.73567251829233"><ele>752.4285714285714</ele><time>2026-04-06T06:55:30.999Z</time></trkpt><trkpt lat="50.78910946042548" lon="15.735729008187144"><ele>753.0</ele><time>2026-04-06T06:55:36.999Z</time></trkpt><trkpt lat="50.78904597017926" lon="15.735763104353603"><ele>753.0</ele><time>2026-04-06T06:55:42.999Z</time></trkpt><trkpt lat="50.78899131979114" lon="15.735820957121408"><ele>753.0</ele><time>2026-04-06T06:55:50.999Z</time></trkpt><trkpt lat="50.78892767606657" lon="15.735829871437254"><ele>753.0</ele><time>2026-04-06T06:55:58.999Z</time></trkpt><trkpt lat="50.7888642643965" lon="15.735838724599159"><ele>753.0</ele><time>2026-04-06T06:56:05.998Z</time></trkpt><trkpt lat="50.78879412731181" lon="15.735851351461967"><ele>753.0</ele><time>2026-04-06T06:56:11.998Z</time></trkpt><trkpt lat="50.7887349712901" lon="15.735890898333427"><ele>753.0</ele><time>2026-04-06T06:56:17.998Z</time></trkpt><trkpt lat="50.78866153917087" lon="15.735918899935232"><ele>753.0</ele><time>2026-04-06T06:56:25.998Z</time></trkpt><trkpt lat="50.78859842998012" lon="15.735945039414064"><ele>753.0</ele><time>2026-04-06T06:56:31.998Z</time></trkpt><trkpt lat="50.78853133742912" lon="15.73597372245297"><ele>753.0</ele><time>2026-04-06T06:56:37.998Z</time></trkpt><trkpt lat="50.78846509163021" lon="15.736007298691026"><ele>753.0</ele><time>2026-04-06T06:56:44.998Z</time></trkpt><trkpt lat="50.788396123205814" lon="15.736000404326692"><ele>753.0</ele><time>2026-04-06T06:56:55Z</time></trkpt><trkpt lat="50.7883261153386" lon="15.736028392578744"><ele>753.0</ele><time>2026-04-06T06:57:11Z</time></trkpt><trkpt lat="50.78826056103856" lon="15.736025682706993"><ele>753.0</ele><time>2026-04-06T06:57:20Z</time></trkpt><trkpt lat="50.78819037384098" lon="15.736033008521302"><ele>753.0</ele><time>2026-04-06T06:57:26.999Z</time></trkpt><trkpt lat="50.78812304967533" lon="15.73606052089979"><ele>753.5714285714286</ele><time>2026-04-06T06:57:33.999Z</time></trkpt><trkpt lat="50.78805894259799" lon="15.736076157238754"><ele>754.1428571428571</ele><time>2026-04-06T06:57:46.999Z</time></trkpt><trkpt lat="50.787997141596634" lon="15.736108229777031"><ele>754.7142857142858</ele><time>2026-04-06T06:57:56.999Z</time></trkpt><trkpt lat="50.7879498500347" lon="15.736174615355358"><ele>755.2857142857142</ele><time>2026-04-06T06:58:01.999Z</time></trkpt><trkpt lat="50.78786430204211" lon="15.736273899633936"><ele>755.8571428571428</ele><time>2026-04-06T06:58:17.998Z</time></trkpt><trkpt lat="50.78779664653851" lon="15.736314389569475"><ele>756.4285714285714</ele><time>2026-04-06T06:58:23.998Z</time></trkpt><trkpt lat="50.78773555243615" lon="15.736362328791502"><ele>757.0</ele><time>2026-04-06T06:58:29.998Z</time></trkpt><trkpt lat="50.787678970384825" lon="15.736427028688473"><ele>755.7142857142858</ele><time>2026-04-06T06:58:36.998Z</time></trkpt><trkpt lat="50.78761070206387" lon="15.736452738963566"><ele>754.4285714285713</ele><time>2026-04-06T06:58:41.998Z</time></trkpt><trkpt lat="50.78756378352655" lon="15.736522416218683"><ele>753.1428571428571</ele><time>2026-04-06T06:58:47.998Z</time></trkpt><trkpt lat="50.78750295710411" lon="15.736581439312317"><ele>751.8571428571429</ele><time>2026-04-06T06:58:53.997Z</time></trkpt><trkpt lat="50.78745237334426" lon="15.736651263226117"><ele>750.5714285714287</ele><time>2026-04-06T06:59:00Z</time></trkpt><trkpt lat="50.78740314440545" lon="15.736728809080335"><ele>749.2857142857142</ele><time>2026-04-06T06:59:06Z</time></trkpt><trkpt lat="50.787362642429756" lon="15.736806697147546"><ele>748.0</ele><time>2026-04-06T06:59:12Z</time></trkpt><trkpt lat="50.78731138472483" lon="15.736869442484464"><ele>748.0</ele><time>2026-04-06T06:59:18Z</time></trkpt><trkpt lat="50.787273959069736" lon="15.73695203092266"><ele>748.0</ele><time>2026-04-06T06:59:24Z</time></trkpt><trkpt lat="50.78721299149539" lon="15.737013540897927"><ele>748.0</ele><time>2026-04-06T06:59:30Z</time></trkpt><trkpt lat="50.78716324564586" lon="15.737076224098091"><ele>748.0</ele><time>2026-04-06T06:59:34.999Z</time></trkpt><trkpt lat="50.78709739965214" lon="15.737084180512035"><ele>748.0</ele><time>2026-04-06T06:59:40.999Z</time></trkpt><trkpt lat="50.787041366487756" lon="15.737130282806456"><ele>748.0</ele><time>2026-04-06T06:59:45.999Z</time></trkpt><trkpt lat="50.786990383790496" lon="15.737193620939594"><ele>748.0</ele><time>2026-04-06T06:59:51.999Z</time></trkpt><trkpt lat="50.786935493166226" lon="15.737256304988753"><ele>748.0</ele><time>2026-04-06T07:00:01.999Z</time></trkpt><trkpt lat="50.78688445456175" lon="15.737318787270379"><ele>748.0</ele><time>2026-04-06T07:00:08.999Z</time></trkpt><trkpt lat="50.78682450356602" lon="15.737354930831783"><ele>748.0</ele><time>2026-04-06T07:00:15.998Z</time></trkpt><trkpt lat="50.78675646539037" lon="15.737385105683993"><ele>748.0</ele><time>2026-04-06T07:00:22.998Z</time></trkpt><trkpt lat="50.78669030623712" lon="15.737410645154485"><ele>748.0</ele><time>2026-04-06T07:00:51.998Z</time></trkpt><trkpt lat="50.78664005725012" lon="15.737477180029822"><ele>748.0</ele><time>2026-04-06T07:00:58.997Z</time></trkpt><trkpt lat="50.78657025463109" lon="15.737533129312226"><ele>748.0</ele><time>2026-04-06T07:01:04Z</time></trkpt><trkpt lat="50.78651810275142" lon="15.737614129137784"><ele>745.8571428571428</ele><time>2026-04-06T07:01:10Z</time></trkpt><trkpt lat="50.786468443813135" lon="15.737676862780557"><ele>743.7142857142858</ele><time>2026-04-06T07:01:16Z</time></trkpt><trkpt lat="50.786409466737396" lon="15.737741518525842"><ele>741.5714285714286</ele><time>2026-04-06T07:01:21Z</time></trkpt><trkpt lat="50.78635685821915" lon="15.737803701918928"><ele>739.4285714285713</ele><time>2026-04-06T07:01:26Z</time></trkpt><trkpt lat="50.78631412973331" lon="15.737893767075096"><ele>737.2857142857142</ele><time>2026-04-06T07:01:32Z</time></trkpt><trkpt lat="50.78625826212583" lon="15.737963561961829"><ele>735.1428571428571</ele><time>2026-04-06T07:01:37.999Z</time></trkpt><trkpt lat="50.78620525862053" lon="15.738026893613485"><ele>733.0</ele><time>2026-04-06T07:01:43.999Z</time></trkpt><trkpt lat="50.7861551044884" lon="15.738104102058664"><ele>732.8571428571428</ele><time>2026-04-06T07:01:49.999Z</time></trkpt><trkpt lat="50.78610775268351" lon="15.73817121807633"><ele>732.7142857142857</ele><time>2026-04-06T07:01:56.999Z</time></trkpt><trkpt lat="50.78603994682986" lon="15.738219332649612"><ele>732.5714285714286</ele><time>2026-04-06T07:02:04.999Z</time></trkpt><trkpt lat="50.78597646183101" lon="15.738280638152814"><ele>732.4285714285713</ele><time>2026-04-06T07:02:11.999Z</time></trkpt><trkpt lat="50.78591078224124" lon="15.738323087117932"><ele>732.2857142857143</ele><time>2026-04-06T07:02:19.998Z</time></trkpt><trkpt lat="50.78584926393754" lon="15.738289174709825"><ele>732.1428571428571</ele><time>2026-04-06T07:02:24.998Z</time></trkpt><trkpt lat="50.78578605459936" lon="15.738313944792466"><ele>732.0</ele><time>2026-04-06T07:02:30.998Z</time></trkpt><trkpt lat="50.785722583031394" lon="15.738318905262267"><ele>729.7142857142858</ele><time>2026-04-06T07:02:36.998Z</time></trkpt><trkpt lat="50.785659613262816" lon="15.73837390405714"><ele>727.4285714285714</ele><time>2026-04-06T07:02:45.998Z</time></trkpt><trkpt lat="50.78558724835313" lon="15.73840807240881"><ele>725.1428571428571</ele><time>2026-04-06T07:02:52.998Z</time></trkpt><trkpt lat="50.78552915886285" lon="15.738448243526003"><ele>722.8571428571429</ele><time>2026-04-06T07:03:01.998Z</time></trkpt><trkpt lat="50.7854531758065" lon="15.738469459251613"><ele>720.5714285714286</ele><time>2026-04-06T07:03:16Z</time></trkpt><trkpt lat="50.78538529044399" lon="15.73849410060118"><ele>718.2857142857143</ele><time>2026-04-06T07:03:22Z</time></trkpt><trkpt lat="50.78531500083287" lon="15.738525510531783"><ele>716.0</ele><time>2026-04-06T07:03:30Z</time></trkpt><trkpt lat="50.78525354482411" lon="15.73848864791366"><ele>716.0000000000001</ele><time>2026-04-06T07:03:36Z</time></trkpt><trkpt lat="50.785190880870296" lon="15.738515988108496"><ele>716.0</ele><time>2026-04-06T07:03:43.999Z</time></trkpt><trkpt lat="50.7851311893595" lon="15.738474385724361"><ele>716.0</ele><time>2026-04-06T07:03:49.999Z</time></trkpt><trkpt lat="50.78506300340707" lon="15.738432546695547"><ele>716.0</ele><time>2026-04-06T07:03:57.999Z</time></trkpt><trkpt lat="50.78498263441738" lon="15.7385385616023"><ele>716.0</ele><time>2026-04-06T07:04:47.998Z</time></trkpt><trkpt lat="50.78504314152549" lon="15.738498611897077"><ele>716.0000000000001</ele><time>2026-04-06T07:05:01.998Z</time></trkpt><trkpt lat="50.785049457954855" lon="15.738392717017708"><ele>716.0</ele><time>2026-04-06T07:05:11.997Z</time></trkpt><trkpt lat="50.784991299683796" lon="15.738347092261035"><ele>713.4285714285714</ele><time>2026-04-06T07:05:18Z</time></trkpt><trkpt lat="50.784931202407805" lon="15.738291544496956"><ele>710.8571428571429</ele><time>2026-04-06T07:05:25Z</time></trkpt><trkpt lat="50.78486931594535" lon="15.738231572787324"><ele>708.2857142857142</ele><time>2026-04-06T07:05:34Z</time></trkpt><trkpt lat="50.78480223092047" lon="15.738231818376365"><ele>705.7142857142858</ele><time>2026-04-06T07:05:41Z</time></trkpt><trkpt lat="50.78473757626535" lon="15.738213284919732"><ele>703.1428571428571</ele><time>2026-04-06T07:05:47Z</time></trkpt><trkpt lat="50.784673204101864" lon="15.738239706333118"><ele>700.5714285714286</ele><time>2026-04-06T07:05:53.999Z</time></trkpt><trkpt lat="50.78460838070546" lon="15.738215456293114"><ele>698.0</ele><time>2026-04-06T07:06:00.999Z</time></trkpt><trkpt lat="50.784545976036746" lon="15.738154458970056"><ele>697.9999999999999</ele><time>2026-04-06T07:06:04.999Z</time></trkpt><trkpt lat="50.78447696729714" lon="15.73813232322253"><ele>698.0</ele><time>2026-04-06T07:06:08.999Z</time></trkpt><trkpt lat="50.784424140809044" lon="15.738205241320944"><ele>698.0</ele><time>2026-04-06T07:06:13.999Z</time></trkpt><trkpt lat="50.784413489357235" lon="15.738309858836265"><ele>698.0</ele><time>2026-04-06T07:06:18.999Z</time></trkpt><trkpt lat="50.78438691711332" lon="15.73841089066541"><ele>698.0</ele><time>2026-04-06T07:06:24.999Z</time></trkpt><trkpt lat="50.78433734868607" lon="15.738478718197385"><ele>697.9999999999999</ele><time>2026-04-06T07:06:30.998Z</time></trkpt><trkpt lat="50.78428682125045" lon="15.738568243894946"><ele>698.0</ele><time>2026-04-06T07:06:36.998Z</time></trkpt><trkpt lat="50.78425957134099" lon="15.738661702760819"><ele>695.7142857142857</ele><time>2026-04-06T07:06:41.998Z</time></trkpt><trkpt lat="50.78423761714354" lon="15.738773158491004"><ele>693.4285714285714</ele><time>2026-04-06T07:06:46.998Z</time></trkpt><trkpt lat="50.784203454439705" lon="15.738868729458401"><ele>691.1428571428571</ele><time>2026-04-06T07:06:51.998Z</time></trkpt><trkpt lat="50.784152349031736" lon="15.738927856185963"><ele>688.8571428571429</ele><time>2026-04-06T07:06:57.998Z</time></trkpt><trkpt lat="50.784100891787716" lon="15.738988644887222"><ele>686.5714285714286</ele><time>2026-04-06T07:07:03.998Z</time></trkpt><trkpt lat="50.78405002460766" lon="15.739048736396075"><ele>684.2857142857142</ele><time>2026-04-06T07:07:08.998Z</time></trkpt><trkpt lat="50.78400184916278" lon="15.739123941651185"><ele>682.0</ele><time>2026-04-06T07:07:14.997Z</time></trkpt><trkpt lat="50.783947595306614" lon="15.739190458577603"><ele>682.0</ele><time>2026-04-06T07:07:22Z</time></trkpt><trkpt lat="50.78390295895606" lon="15.739277004126407"><ele>682.0</ele><time>2026-04-06T07:07:28Z</time></trkpt><trkpt lat="50.78384515126766" lon="15.739346024382215"><ele>682.0</ele><time>2026-04-06T07:07:35Z</time></trkpt><trkpt lat="50.78380990308833" lon="15.739439367484115"><ele>682.0</ele><time>2026-04-06T07:07:41Z</time></trkpt><trkpt lat="50.78376739631904" lon="15.73952717963907"><ele>682.0</ele><time>2026-04-06T07:07:47Z</time></trkpt><trkpt lat="50.783738943017724" lon="15.739622745957353"><ele>682.0</ele><time>2026-04-06T07:07:52Z</time></trkpt><trkpt lat="50.78371050466487" lon="15.739725135336021"><ele>682.0</ele><time>2026-04-06T07:07:56.999Z</time></trkpt><trkpt lat="50.78368442394258" lon="15.73982725061401"><ele>682.0</ele><time>2026-04-06T07:08:01.999Z</time></trkpt><trkpt lat="50.783658028723316" lon="15.739930106318964"><ele>682.0</ele><time>2026-04-06T07:08:06.999Z</time></trkpt><trkpt lat="50.78363300672324" lon="15.74002761098991"><ele>682.0</ele><time>2026-04-06T07:08:10.999Z</time></trkpt><trkpt lat="50.78359770561497" lon="15.740130465873156"><ele>682.0</ele><time>2026-04-06T07:08:15.999Z</time></trkpt><trkpt lat="50.78356599207185" lon="15.740216919584878"><ele>682.0</ele><time>2026-04-06T07:08:19.999Z</time></trkpt><trkpt lat="50.78353036520668" lon="15.74032697468876"><ele>682.0</ele><time>2026-04-06T07:08:24.999Z</time></trkpt><trkpt lat="50.7834947117261" lon="15.740415657737516"><ele>682.0</ele><time>2026-04-06T07:08:29.999Z</time></trkpt><trkpt lat="50.78345397661507" lon="15.740516556685744"><ele>680.4285714285714</ele><time>2026-04-06T07:08:34.999Z</time></trkpt><trkpt lat="50.78340647591894" lon="15.740597116119746"><ele>678.8571428571429</ele><time>2026-04-06T07:08:39.998Z</time></trkpt><trkpt lat="50.78335716188946" lon="15.74067010606156"><ele>677.2857142857142</ele><time>2026-04-06T07:08:44.998Z</time></trkpt><trkpt lat="50.783307091192874" lon="15.740735047172139"><ele>675.7142857142858</ele><time>2026-04-06T07:08:49.998Z</time></trkpt><trkpt lat="50.78325490858055" lon="15.740803405339197"><ele>674.1428571428572</ele><time>2026-04-06T07:08:54.998Z</time></trkpt><trkpt lat="50.783201759641706" lon="15.740867378563012"><ele>672.5714285714286</ele><time>2026-04-06T07:08:59.998Z</time></trkpt><trkpt lat="50.783144070421635" lon="15.74093698526497"><ele>671.0</ele><time>2026-04-06T07:09:05.998Z</time></trkpt><trkpt lat="50.78309237829571" lon="15.74099515064515"><ele>670.8571428571428</ele><time>2026-04-06T07:09:10.998Z</time></trkpt><trkpt lat="50.78303607452312" lon="15.74105689927809"><ele>670.7142857142858</ele><time>2026-04-06T07:09:15.998Z</time></trkpt><trkpt lat="50.78298306543787" lon="15.741119056424814"><ele>670.5714285714286</ele><time>2026-04-06T07:09:20.997Z</time></trkpt><trkpt lat="50.78292247111028" lon="15.74117322333628"><ele>670.4285714285713</ele><time>2026-04-06T07:09:25.997Z</time></trkpt><trkpt lat="50.78286790826156" lon="15.741245795154862"><ele>670.2857142857142</ele><time>2026-04-06T07:09:31Z</time></trkpt><trkpt lat="50.78281649215199" lon="15.741319212952492"><ele>670.1428571428571</ele><time>2026-04-06T07:09:36Z</time></trkpt><trkpt lat="50.78276023874883" lon="15.741376477329828"><ele>670.0</ele><time>2026-04-06T07:09:41Z</time></trkpt><trkpt lat="50.782703990329146" lon="15.741448812173589"><ele>669.9999999999999</ele><time>2026-04-06T07:09:46Z</time></trkpt><trkpt lat="50.78264817083306" lon="15.741514353878067"><ele>670.0</ele><time>2026-04-06T07:09:51Z</time></trkpt><trkpt lat="50.78259085983017" lon="15.741559301641107"><ele>670.0</ele><time>2026-04-06T07:09:56Z</time></trkpt><trkpt lat="50.782542601317914" lon="15.74163201885035"><ele>670.0</ele><time>2026-04-06T07:10:00.999Z</time></trkpt><trkpt lat="50.78250375935188" lon="15.741723665998538"><ele>670.0</ele><time>2026-04-06T07:10:06.999Z</time></trkpt><trkpt lat="50.7824617724855" lon="15.741823350920424"><ele>669.9999999999999</ele><time>2026-04-06T07:10:11.999Z</time></trkpt><trkpt lat="50.782430216558545" lon="15.741923826478441"><ele>670.0</ele><time>2026-04-06T07:10:16.999Z</time></trkpt><trkpt lat="50.78239277523963" lon="15.742013656712285"><ele>668.7142857142857</ele><time>2026-04-06T07:10:21.999Z</time></trkpt><trkpt lat="50.782350957271895" lon="15.742089054885168"><ele>667.4285714285714</ele><time>2026-04-06T07:10:25.999Z</time></trkpt><trkpt lat="50.782308643295934" lon="15.742187315210067"><ele>666.1428571428571</ele><time>2026-04-06T07:10:30.999Z</time></trkpt><trkpt lat="50.7822703287281" lon="15.742284526217132"><ele>664.8571428571429</ele><time>2026-04-06T07:10:35.999Z</time></trkpt><trkpt lat="50.78222783853232" lon="15.74237414719645"><ele>663.5714285714286</ele><time>2026-04-06T07:10:40.999Z</time></trkpt><trkpt lat="50.78218745448086" lon="15.742465428445557"><ele>662.2857142857142</ele><time>2026-04-06T07:10:45.998Z</time></trkpt><trkpt lat="50.782156044012545" lon="15.742569554139699"><ele>661.0</ele><time>2026-04-06T07:10:50.998Z</time></trkpt><trkpt lat="50.78212527859946" lon="15.742674859446252"><ele>660.1428571428571</ele><time>2026-04-06T07:10:55.998Z</time></trkpt><trkpt lat="50.782094772845696" lon="15.742786378901876"><ele>659.2857142857143</ele><time>2026-04-06T07:11:00.998Z</time></trkpt><trkpt lat="50.78207327125171" lon="15.742888164837321"><ele>658.4285714285714</ele><time>2026-04-06T07:11:05.998Z</time></trkpt><trkpt lat="50.78206298526671" lon="15.742998131324292"><ele>657.5714285714286</ele><time>2026-04-06T07:11:10.998Z</time></trkpt><trkpt lat="50.78202983678049" lon="15.74309923870009"><ele>656.7142857142857</ele><time>2026-04-06T07:11:15.998Z</time></trkpt><trkpt lat="50.78199839721069" lon="15.743210262608478"><ele>655.8571428571429</ele><time>2026-04-06T07:11:20.998Z</time></trkpt><trkpt lat="50.781982549891254" lon="15.743319075006509"><ele>655.0</ele><time>2026-04-06T07:11:25.998Z</time></trkpt><trkpt lat="50.78196072249671" lon="15.743424576666875"><ele>655.0</ele><time>2026-04-06T07:11:30.997Z</time></trkpt><trkpt lat="50.781931557288395" lon="15.74352253847665"><ele>655.0</ele><time>2026-04-06T07:11:36Z</time></trkpt><trkpt lat="50.781913859637974" lon="15.743618953642137"><ele>655.0</ele><time>2026-04-06T07:11:41Z</time></trkpt><trkpt lat="50.781870970939444" lon="15.743700537887507"><ele>655.0</ele><time>2026-04-06T07:11:46Z</time></trkpt><trkpt lat="50.78183697069716" lon="15.743792484995272"><ele>655.0</ele><time>2026-04-06T07:11:51Z</time></trkpt><trkpt lat="50.78180397215859" lon="15.74389573185387"><ele>655.0</ele><time>2026-04-06T07:11:56Z</time></trkpt><trkpt lat="50.78176355999699" lon="15.743991446347946"><ele>655.0</ele><time>2026-04-06T07:12:01Z</time></trkpt><trkpt lat="50.781714781752335" lon="15.7440753582165"><ele>655.1428571428571</ele><time>2026-04-06T07:12:06Z</time></trkpt><trkpt lat="50.781661711384814" lon="15.744156774833128"><ele>655.2857142857142</ele><time>2026-04-06T07:12:11.999Z</time></trkpt><trkpt lat="50.78160983869531" lon="15.74423871089017"><ele>655.4285714285713</ele><time>2026-04-06T07:12:16.999Z</time></trkpt><trkpt lat="50.7815581877489" lon="15.744325072057027"><ele>655.5714285714286</ele><time>2026-04-06T07:12:21.999Z</time></trkpt><trkpt lat="50.78154098351719" lon="15.744436978836163"><ele>655.7142857142857</ele><time>2026-04-06T07:12:26.999Z</time></trkpt><trkpt lat="50.78151491437966" lon="15.744540408784637"><ele>655.8571428571428</ele><time>2026-04-06T07:12:31.999Z</time></trkpt><trkpt lat="50.78149223435978" lon="15.744653744854265"><ele>656.0</ele><time>2026-04-06T07:12:36.999Z</time></trkpt><trkpt lat="50.78147860567208" lon="15.744751568764404"><ele>655.9999999999999</ele><time>2026-04-06T07:12:41.999Z</time></trkpt><trkpt lat="50.78144284821956" lon="15.74483835800145"><ele>656.0</ele><time>2026-04-06T07:12:46.999Z</time></trkpt><trkpt lat="50.78141633834944" lon="15.744939077888882"><ele>656.0</ele><time>2026-04-06T07:12:51.998Z</time></trkpt><trkpt lat="50.781388787551094" lon="15.745046183540028"><ele>656.0</ele><time>2026-04-06T07:12:56.998Z</time></trkpt><trkpt lat="50.781353152669006" lon="15.745150941743331"><ele>656.0</ele><time>2026-04-06T07:13:01.998Z</time></trkpt><trkpt lat="50.78133116178198" lon="15.745252987413277"><ele>655.9999999999999</ele><time>2026-04-06T07:13:06.998Z</time></trkpt><trkpt lat="50.78130212707753" lon="15.745351094677176"><ele>656.0</ele><time>2026-04-06T07:13:11.998Z</time></trkpt><trkpt lat="50.78126969833618" lon="15.745449927677146"><ele>654.9999999999999</ele><time>2026-04-06T07:13:16.998Z</time></trkpt><trkpt lat="50.78124243821366" lon="15.74554381758054"><ele>654.0</ele><time>2026-04-06T07:13:21.998Z</time></trkpt><trkpt lat="50.7812035709377" lon="15.745625085437881"><ele>653.0</ele><time>2026-04-06T07:13:27.998Z</time></trkpt><trkpt lat="50.781178967068115" lon="15.7457327986236"><ele>652.0</ele><time>2026-04-06T07:13:32.998Z</time></trkpt><trkpt lat="50.78116512171013" lon="15.745838637584999"><ele>651.0</ele><time>2026-04-06T07:13:37.997Z</time></trkpt><trkpt lat="50.78115294568002" lon="15.745936975540303"><ele>649.9999999999999</ele><time>2026-04-06T07:13:43Z</time></trkpt><trkpt lat="50.78114241658002" lon="15.746054132810624"><ele>649.0</ele><time>2026-04-06T07:13:48Z</time></trkpt><trkpt lat="50.78112101283103" lon="15.746157662429983"><ele>648.1428571428571</ele><time>2026-04-06T07:13:53Z</time></trkpt><trkpt lat="50.781101908272106" lon="15.746255942773077"><ele>647.2857142857142</ele><time>2026-04-06T07:13:58Z</time></trkpt><trkpt lat="50.78107197311784" lon="15.74635772958927"><ele>646.4285714285713</ele><time>2026-04-06T07:14:03Z</time></trkpt><trkpt lat="50.781049007469655" lon="15.746463948475084"><ele>645.5714285714286</ele><time>2026-04-06T07:14:08Z</time></trkpt><trkpt lat="50.781043761645755" lon="15.746566279855422"><ele>644.7142857142858</ele><time>2026-04-06T07:14:12.999Z</time></trkpt><trkpt lat="50.781045455237425" lon="15.74666870087957"><ele>643.8571428571428</ele><time>2026-04-06T07:14:17.999Z</time></trkpt><trkpt lat="50.78104828948548" lon="15.74677212838306"><ele>643.0</ele><time>2026-04-06T07:14:22.999Z</time></trkpt><trkpt lat="50.781044142998546" lon="15.746879014465911"><ele>642.5714285714286</ele><time>2026-04-06T07:14:27.999Z</time></trkpt><trkpt lat="50.78107440739635" lon="15.746985633183476"><ele>642.1428571428572</ele><time>2026-04-06T07:14:32.999Z</time></trkpt><trkpt lat="50.78108923882954" lon="15.74709183552261"><ele>641.7142857142858</ele><time>2026-04-06T07:14:37.999Z</time></trkpt><trkpt lat="50.781106985269695" lon="15.747188296047039"><ele>641.2857142857142</ele><time>2026-04-06T07:14:42.999Z</time></trkpt><trkpt lat="50.78111235368785" lon="15.747291281686364"><ele>640.8571428571429</ele><time>2026-04-06T07:14:47.999Z</time></trkpt><trkpt lat="50.78113230935749" lon="15.747405336873122"><ele>640.4285714285714</ele><time>2026-04-06T07:14:53.999Z</time></trkpt><trkpt lat="50.78115636191703" lon="15.747505071937981"><ele>640.0</ele><time>2026-04-06T07:14:59.998Z</time></trkpt><trkpt lat="50.781188612267194" lon="15.747593584833416"><ele>640.0</ele><time>2026-04-06T07:15:04.998Z</time></trkpt><trkpt lat="50.781203306252266" lon="15.747692034853706"><ele>640.0</ele><time>2026-04-06T07:15:09.998Z</time></trkpt><trkpt lat="50.78123168004702" lon="15.747795780761042"><ele>640.0</ele><time>2026-04-06T07:15:15.998Z</time></trkpt><trkpt lat="50.781265174036115" lon="15.747888529846827"><ele>640.0</ele><time>2026-04-06T07:15:20.998Z</time></trkpt><trkpt lat="50.78128713137661" lon="15.747992517999176"><ele>640.0</ele><time>2026-04-06T07:15:26.998Z</time></trkpt><trkpt lat="50.78131991452742" lon="15.748096577104475"><ele>640.0</ele><time>2026-04-06T07:15:32.998Z</time></trkpt><trkpt lat="50.78136943450904" lon="15.748175079129087"><ele>640.0</ele><time>2026-04-06T07:15:38.998Z</time></trkpt><trkpt lat="50.78138821868208" lon="15.748282802078501"><ele>639.2857142857142</ele><time>2026-04-06T07:15:43.997Z</time></trkpt><trkpt lat="50.78142674011017" lon="15.748374654156581"><ele>638.5714285714286</ele><time>2026-04-06T07:15:49Z</time></trkpt><trkpt lat="50.781465393624664" lon="15.748471088164626"><ele>637.8571428571429</ele><time>2026-04-06T07:15:54Z</time></trkpt><trkpt lat="50.781511948455936" lon="15.748558322317887"><ele>637.1428571428571</ele><time>2026-04-06T07:15:59Z</time></trkpt><trkpt lat="50.781540093105434" lon="15.7486499496094"><ele>636.4285714285714</ele><time>2026-04-06T07:16:04Z</time></trkpt><trkpt lat="50.78158571170571" lon="15.74872474076918"><ele>635.7142857142857</ele><time>2026-04-06T07:16:09Z</time></trkpt><trkpt lat="50.78161652013942" lon="15.748827567605115"><ele>635.0</ele><time>2026-04-06T07:16:15Z</time></trkpt><trkpt lat="50.78164357528034" lon="15.748919420486002"><ele>634.2857142857142</ele><time>2026-04-06T07:16:19.999Z</time></trkpt><trkpt lat="50.78166272370748" lon="15.749022533994102"><ele>633.5714285714286</ele><time>2026-04-06T07:16:24.999Z</time></trkpt><trkpt lat="50.78167768720997" lon="15.749122900519618"><ele>632.8571428571429</ele><time>2026-04-06T07:16:29.999Z</time></trkpt><trkpt lat="50.781709525992554" lon="15.749211887980646"><ele>632.1428571428571</ele><time>2026-04-06T07:16:35.999Z</time></trkpt><trkpt lat="50.78174754190243" lon="15.749302439334793"><ele>631.4285714285714</ele><time>2026-04-06T07:16:41.999Z</time></trkpt><trkpt lat="50.78177605041559" lon="15.749407517301169"><ele>630.7142857142857</ele><time>2026-04-06T07:16:47.999Z</time></trkpt><trkpt lat="50.78180259288061" lon="15.749505734795605"><ele>630.0</ele><time>2026-04-06T07:16:53.999Z</time></trkpt><trkpt lat="50.78183613075796" lon="15.749605994244215"><ele>628.4285714285714</ele><time>2026-04-06T07:16:59.999Z</time></trkpt><trkpt lat="50.78185742747246" lon="15.749717375044215"><ele>626.8571428571429</ele><time>2026-04-06T07:17:05.998Z</time></trkpt><trkpt lat="50.781865467728394" lon="15.749833612357277"><ele>625.2857142857142</ele><time>2026-04-06T07:17:11.998Z</time></trkpt><trkpt lat="50.78191065133047" lon="15.749926031756223"><ele>623.7142857142858</ele><time>2026-04-06T07:17:17.998Z</time></trkpt><trkpt lat="50.78193064420727" lon="15.750036506026685"><ele>622.1428571428571</ele><time>2026-04-06T07:17:23.998Z</time></trkpt><trkpt lat="50.781948504097166" lon="15.7501449942997"><ele>620.5714285714286</ele><time>2026-04-06T07:17:29.998Z</time></trkpt><trkpt lat="50.78196821700754" lon="15.750241318452966"><ele>619.0</ele><time>2026-04-06T07:17:34.998Z</time></trkpt><trkpt lat="50.781977595864774" lon="15.75035865019429"><ele>618.7142857142857</ele><time>2026-04-06T07:17:40.998Z</time></trkpt><trkpt lat="50.781992454096134" lon="15.750461004677495"><ele>618.4285714285714</ele><time>2026-04-06T07:17:46.997Z</time></trkpt><trkpt lat="50.78200630947812" lon="15.750558459668673"><ele>618.1428571428571</ele><time>2026-04-06T07:17:53Z</time></trkpt><trkpt lat="50.78201480262702" lon="15.750660612975965"><ele>617.8571428571429</ele><time>2026-04-06T07:17:59Z</time></trkpt><trkpt lat="50.78201079578767" lon="15.750772067888555"><ele>617.5714285714286</ele><time>2026-04-06T07:18:05Z</time></trkpt><trkpt lat="50.78201315569283" lon="15.750887127153852"><ele>617.2857142857143</ele><time>2026-04-06T07:18:11Z</time></trkpt><trkpt lat="50.781958535355095" lon="15.750946956714655"><ele>617.0</ele><time>2026-04-06T07:18:16Z</time></trkpt><trkpt lat="50.78190783584578" lon="15.750884542828786"><ele>617.0</ele><time>2026-04-06T07:18:24Z</time></trkpt><trkpt lat="50.78184673853369" lon="15.750832517706625"><ele>623.0</ele><time>2026-04-06T07:18:29.999Z</time></trkpt></trkseg></trk></gpx>